sensor_id;sensor_type;location;lat;lon;timestamp;P1;durP1;ratioP1;P2;durP2;ratioP2
29402;SDS011;16382;59.942;30.472;2023-03-30T00:00:54;2.00;;;1.80;;
29402;SDS011;16382;59.942;30.472;2023-03-30T00:03:22;3.13;;;2.05;;
29402;SDS011;16382;59.942;30.472;2023-03-30T00:05:51;2.38;;;2.10;;
29402;SDS011;16382;59.942;30.472;2023-03-30T00:08:21;3.30;;;2.05;;
29402;SDS011;16382;59.942;30.472;2023-03-30T00:10:52;3.47;;;1.88;;
29402;SDS011;16382;59.942;30.472;2023-03-30T00:13:27;2.88;;;2.40;;
29402;SDS011;16382;59.942;30.472;2023-03-30T00:15:55;2.20;;;1.98;;
29402;SDS011;16382;59.942;30.472;2023-03-30T00:18:22;2.65;;;2.38;;
29402;SDS011;16382;59.942;30.472;2023-03-30T00:20:51;2.50;;;1.80;;
29402;SDS011;16382;59.942;30.472;2023-03-30T00:23:18;3.13;;;2.15;;
29402;SDS011;16382;59.942;30.472;2023-03-30T00:25:46;4.55;;;2.05;;
29402;SDS011;16382;59.942;30.472;2023-03-30T00:28:14;2.30;;;2.10;;
29402;SDS011;16382;59.942;30.472;2023-03-30T00:30:43;3.88;;;2.05;;
29402;SDS011;16382;59.942;30.472;2023-03-30T00:33:11;4.50;;;2.63;;
29402;SDS011;16382;59.942;30.472;2023-03-30T00:35:38;3.60;;;1.95;;
29402;SDS011;16382;59.942;30.472;2023-03-30T00:38:06;2.53;;;2.22;;
29402;SDS011;16382;59.942;30.472;2023-03-30T00:40:34;3.88;;;2.58;;
29402;SDS011;16382;59.942;30.472;2023-03-30T00:43:04;3.92;;;2.67;;
29402;SDS011;16382;59.942;30.472;2023-03-30T00:45:36;2.55;;;2.17;;
29402;SDS011;16382;59.942;30.472;2023-03-30T00:48:06;3.83;;;2.63;;
29402;SDS011;16382;59.942;30.472;2023-03-30T00:50:41;4.95;;;2.33;;
29402;SDS011;16382;59.942;30.472;2023-03-30T00:53:13;2.72;;;2.38;;
29402;SDS011;16382;59.942;30.472;2023-03-30T00:55:45;3.40;;;2.95;;
29402;SDS011;16382;59.942;30.472;2023-03-30T00:58:15;3.80;;;2.45;;
29402;SDS011;16382;59.942;30.472;2023-03-30T01:00:44;4.10;;;2.78;;
29402;SDS011;16382;59.942;30.472;2023-03-30T01:03:15;3.15;;;2.22;;
29402;SDS011;16382;59.942;30.472;2023-03-30T01:05:47;4.82;;;3.22;;
29402;SDS011;16382;59.942;30.472;2023-03-30T01:08:15;6.90;;;3.53;;
29402;SDS011;16382;59.942;30.472;2023-03-30T01:10:45;4.53;;;3.22;;
29402;SDS011;16382;59.942;30.472;2023-03-30T01:13:12;3.22;;;2.90;;
29402;SDS011;16382;59.942;30.472;2023-03-30T01:15:45;6.95;;;3.05;;
29402;SDS011;16382;59.942;30.472;2023-03-30T01:18:30;4.07;;;3.10;;
29402;SDS011;16382;59.942;30.472;2023-03-30T01:21:20;5.50;;;3.70;;
29402;SDS011;16382;59.942;30.472;2023-03-30T01:24:35;5.43;;;3.25;;
29402;SDS011;16382;59.942;30.472;2023-03-30T01:27:28;3.85;;;2.63;;
29402;SDS011;16382;59.942;30.472;2023-03-30T01:30:21;4.97;;;2.70;;
29402;SDS011;16382;59.942;30.472;2023-03-30T01:33:16;4.43;;;2.95;;
29402;SDS011;16382;59.942;30.472;2023-03-30T01:39:35;5.47;;;3.38;;
29402;SDS011;16382;59.942;30.472;2023-03-30T01:42:14;4.25;;;3.80;;
29402;SDS011;16382;59.942;30.472;2023-03-30T01:44:49;4.60;;;3.58;;
29402;SDS011;16382;59.942;30.472;2023-03-30T01:47:31;5.55;;;3.38;;
29402;SDS011;16382;59.942;30.472;2023-03-30T01:50:05;4.80;;;3.55;;
29402;SDS011;16382;59.942;30.472;2023-03-30T01:52:38;4.43;;;3.33;;
29402;SDS011;16382;59.942;30.472;2023-03-30T01:55:13;4.95;;;3.55;;
29402;SDS011;16382;59.942;30.472;2023-03-30T01:57:44;3.60;;;2.88;;
29402;SDS011;16382;59.942;30.472;2023-03-30T02:00:18;3.75;;;3.28;;
29402;SDS011;16382;59.942;30.472;2023-03-30T02:02:50;5.53;;;3.13;;
29402;SDS011;16382;59.942;30.472;2023-03-30T02:05:21;4.97;;;3.65;;
29402;SDS011;16382;59.942;30.472;2023-03-30T02:10:26;5.78;;;2.70;;
29402;SDS011;16382;59.942;30.472;2023-03-30T02:12:57;4.13;;;3.00;;
29402;SDS011;16382;59.942;30.472;2023-03-30T02:15:27;3.92;;;3.20;;
29402;SDS011;16382;59.942;30.472;2023-03-30T02:18:03;4.38;;;3.17;;
29402;SDS011;16382;59.942;30.472;2023-03-30T02:20:30;3.90;;;3.47;;
29402;SDS011;16382;59.942;30.472;2023-03-30T02:23:01;7.60;;;3.58;;
29402;SDS011;16382;59.942;30.472;2023-03-30T02:25:34;3.72;;;3.13;;
29402;SDS011;16382;59.942;30.472;2023-03-30T02:28:03;3.83;;;2.85;;
29402;SDS011;16382;59.942;30.472;2023-03-30T02:30:32;3.47;;;3.17;;
29402;SDS011;16382;59.942;30.472;2023-03-30T02:33:02;3.63;;;3.28;;
29402;SDS011;16382;59.942;30.472;2023-03-30T02:35:38;3.85;;;3.30;;
29402;SDS011;16382;59.942;30.472;2023-03-30T02:38:33;4.43;;;3.22;;
29402;SDS011;16382;59.942;30.472;2023-03-30T02:41:31;4.70;;;3.53;;
29402;SDS011;16382;59.942;30.472;2023-03-30T02:44:20;4.38;;;2.83;;
29402;SDS011;16382;59.942;30.472;2023-03-30T02:46:58;4.30;;;3.10;;
29402;SDS011;16382;59.942;30.472;2023-03-30T02:49:40;4.65;;;3.75;;
29402;SDS011;16382;59.942;30.472;2023-03-30T02:52:24;5.28;;;3.58;;
29402;SDS011;16382;59.942;30.472;2023-03-30T02:55:09;3.08;;;2.78;;
29402;SDS011;16382;59.942;30.472;2023-03-30T02:57:54;4.03;;;3.30;;
29402;SDS011;16382;59.942;30.472;2023-03-30T03:00:52;3.83;;;3.15;;
29402;SDS011;16382;59.942;30.472;2023-03-30T03:03:31;4.70;;;3.30;;
29402;SDS011;16382;59.942;30.472;2023-03-30T03:06:03;5.85;;;3.50;;
29402;SDS011;16382;59.942;30.472;2023-03-30T03:11:09;4.15;;;2.90;;
29402;SDS011;16382;59.942;30.472;2023-03-30T03:13:39;5.30;;;3.50;;
29402;SDS011;16382;59.942;30.472;2023-03-30T03:16:07;4.90;;;4.00;;
29402;SDS011;16382;59.942;30.472;2023-03-30T03:18:39;4.20;;;3.42;;
29402;SDS011;16382;59.942;30.472;2023-03-30T03:21:07;5.30;;;3.22;;
29402;SDS011;16382;59.942;30.472;2023-03-30T03:23:35;5.40;;;3.13;;
29402;SDS011;16382;59.942;30.472;2023-03-30T03:26:04;3.95;;;3.05;;
29402;SDS011;16382;59.942;30.472;2023-03-30T03:28:33;6.07;;;3.00;;
29402;SDS011;16382;59.942;30.472;2023-03-30T03:31:06;6.13;;;3.75;;
29402;SDS011;16382;59.942;30.472;2023-03-30T03:33:34;6.90;;;3.53;;
29402;SDS011;16382;59.942;30.472;2023-03-30T03:36:14;8.65;;;5.53;;
29402;SDS011;16382;59.942;30.472;2023-03-30T03:38:47;9.77;;;4.65;;
29402;SDS011;16382;59.942;30.472;2023-03-30T03:41:15;5.78;;;4.57;;
29402;SDS011;16382;59.942;30.472;2023-03-30T03:43:43;6.22;;;4.75;;
29402;SDS011;16382;59.942;30.472;2023-03-30T03:46:14;12.10;;;5.65;;
29402;SDS011;16382;59.942;30.472;2023-03-30T03:48:43;7.45;;;5.40;;
29402;SDS011;16382;59.942;30.472;2023-03-30T03:51:10;7.57;;;4.40;;
29402;SDS011;16382;59.942;30.472;2023-03-30T03:53:38;18.35;;;4.75;;
29402;SDS011;16382;59.942;30.472;2023-03-30T03:56:09;7.80;;;4.10;;
29402;SDS011;16382;59.942;30.472;2023-03-30T03:58:38;8.85;;;4.60;;
29402;SDS011;16382;59.942;30.472;2023-03-30T04:01:06;8.65;;;4.80;;
29402;SDS011;16382;59.942;30.472;2023-03-30T04:03:35;8.23;;;5.05;;
29402;SDS011;16382;59.942;30.472;2023-03-30T04:06:02;8.00;;;4.72;;
29402;SDS011;16382;59.942;30.472;2023-03-30T04:08:31;6.85;;;4.70;;
29402;SDS011;16382;59.942;30.472;2023-03-30T04:11:08;8.65;;;4.70;;
29402;SDS011;16382;59.942;30.472;2023-03-30T04:14:03;7.45;;;4.95;;
29402;SDS011;16382;59.942;30.472;2023-03-30T04:16:52;7.85;;;5.00;;
29402;SDS011;16382;59.942;30.472;2023-03-30T04:19:46;5.07;;;4.47;;
29402;SDS011;16382;59.942;30.472;2023-03-30T04:22:46;5.68;;;4.55;;
29402;SDS011;16382;59.942;30.472;2023-03-30T04:25:20;6.75;;;5.07;;
29402;SDS011;16382;59.942;30.472;2023-03-30T04:28:08;6.75;;;4.85;;
29402;SDS011;16382;59.942;30.472;2023-03-30T04:30:57;7.55;;;4.45;;
29402;SDS011;16382;59.942;30.472;2023-03-30T04:33:39;11.52;;;5.75;;
29402;SDS011;16382;59.942;30.472;2023-03-30T04:36:35;7.65;;;4.85;;
29402;SDS011;16382;59.942;30.472;2023-03-30T04:39:23;5.60;;;4.85;;
29402;SDS011;16382;59.942;30.472;2023-03-30T04:41:54;6.18;;;4.97;;
29402;SDS011;16382;59.942;30.472;2023-03-30T04:44:44;6.05;;;4.68;;
29402;SDS011;16382;59.942;30.472;2023-03-30T04:47:24;9.82;;;5.05;;
29402;SDS011;16382;59.942;30.472;2023-03-30T04:50:09;8.05;;;4.72;;
29402;SDS011;16382;59.942;30.472;2023-03-30T04:52:56;7.22;;;4.72;;
29402;SDS011;16382;59.942;30.472;2023-03-30T04:55:45;8.35;;;4.85;;
29402;SDS011;16382;59.942;30.472;2023-03-30T04:58:41;5.88;;;4.80;;
29402;SDS011;16382;59.942;30.472;2023-03-30T05:01:21;5.38;;;4.10;;
29402;SDS011;16382;59.942;30.472;2023-03-30T05:04:18;5.28;;;4.15;;
29402;SDS011;16382;59.942;30.472;2023-03-30T05:07:15;6.43;;;4.07;;
29402;SDS011;16382;59.942;30.472;2023-03-30T05:10:06;8.25;;;4.00;;
29402;SDS011;16382;59.942;30.472;2023-03-30T05:15:51;8.05;;;4.40;;
29402;SDS011;16382;59.942;30.472;2023-03-30T05:18:44;4.25;;;3.30;;
29402;SDS011;16382;59.942;30.472;2023-03-30T05:21:31;11.10;;;5.05;;
29402;SDS011;16382;59.942;30.472;2023-03-30T05:24:19;5.10;;;3.70;;
29402;SDS011;16382;59.942;30.472;2023-03-30T05:26:59;3.72;;;3.30;;
29402;SDS011;16382;59.942;30.472;2023-03-30T05:29:43;9.38;;;3.60;;
29402;SDS011;16382;59.942;30.472;2023-03-30T05:32:36;7.22;;;3.80;;
29402;SDS011;16382;59.942;30.472;2023-03-30T05:35:22;6.38;;;4.15;;
29402;SDS011;16382;59.942;30.472;2023-03-30T05:38:15;6.07;;;3.90;;
29402;SDS011;16382;59.942;30.472;2023-03-30T05:41:06;9.35;;;4.38;;
29402;SDS011;16382;59.942;30.472;2023-03-30T05:43:54;6.20;;;4.10;;
29402;SDS011;16382;59.942;30.472;2023-03-30T05:46:40;7.45;;;4.40;;
29402;SDS011;16382;59.942;30.472;2023-03-30T05:49:26;5.82;;;4.10;;
29402;SDS011;16382;59.942;30.472;2023-03-30T05:52:26;5.90;;;3.78;;
29402;SDS011;16382;59.942;30.472;2023-03-30T05:55:12;6.75;;;3.70;;
29402;SDS011;16382;59.942;30.472;2023-03-30T05:57:59;5.70;;;3.47;;
29402;SDS011;16382;59.942;30.472;2023-03-30T06:00:43;4.18;;;3.60;;
29402;SDS011;16382;59.942;30.472;2023-03-30T06:03:22;8.65;;;4.00;;
29402;SDS011;16382;59.942;30.472;2023-03-30T06:05:51;6.80;;;3.50;;
29402;SDS011;16382;59.942;30.472;2023-03-30T06:08:19;11.70;;;3.47;;
29402;SDS011;16382;59.942;30.472;2023-03-30T06:10:50;8.30;;;3.90;;
29402;SDS011;16382;59.942;30.472;2023-03-30T06:13:19;6.05;;;4.18;;
29402;SDS011;16382;59.942;30.472;2023-03-30T06:15:51;4.00;;;3.60;;
29402;SDS011;16382;59.942;30.472;2023-03-30T06:18:21;6.68;;;3.83;;
29402;SDS011;16382;59.942;30.472;2023-03-30T06:20:55;7.28;;;3.80;;
29402;SDS011;16382;59.942;30.472;2023-03-30T06:23:24;7.65;;;3.60;;
29402;SDS011;16382;59.942;30.472;2023-03-30T06:25:56;8.77;;;4.18;;
29402;SDS011;16382;59.942;30.472;2023-03-30T06:28:31;7.18;;;4.15;;
29402;SDS011;16382;59.942;30.472;2023-03-30T06:31:05;6.68;;;4.22;;
29402;SDS011;16382;59.942;30.472;2023-03-30T06:33:36;7.75;;;4.68;;
29402;SDS011;16382;59.942;30.472;2023-03-30T06:36:08;9.80;;;4.20;;
29402;SDS011;16382;59.942;30.472;2023-03-30T06:38:41;8.60;;;4.03;;
29402;SDS011;16382;59.942;30.472;2023-03-30T06:41:09;7.38;;;3.40;;
29402;SDS011;16382;59.942;30.472;2023-03-30T06:43:40;5.53;;;4.05;;
29402;SDS011;16382;59.942;30.472;2023-03-30T06:46:15;4.22;;;3.08;;
29402;SDS011;16382;59.942;30.472;2023-03-30T06:48:45;8.10;;;4.47;;
29402;SDS011;16382;59.942;30.472;2023-03-30T06:51:45;5.85;;;3.03;;
29402;SDS011;16382;59.942;30.472;2023-03-30T06:54:13;3.33;;;3.00;;
29402;SDS011;16382;59.942;30.472;2023-03-30T06:56:52;4.82;;;2.97;;
29402;SDS011;16382;59.942;30.472;2023-03-30T06:59:19;2.78;;;2.13;;
29402;SDS011;16382;59.942;30.472;2023-03-30T07:02:10;4.35;;;2.53;;
29402;SDS011;16382;59.942;30.472;2023-03-30T07:04:48;2.72;;;2.25;;
29402;SDS011;16382;59.942;30.472;2023-03-30T07:07:31;2.85;;;2.08;;
29402;SDS011;16382;59.942;30.472;2023-03-30T07:10:01;4.65;;;2.35;;
29402;SDS011;16382;59.942;30.472;2023-03-30T07:12:35;2.67;;;2.47;;
29402;SDS011;16382;59.942;30.472;2023-03-30T07:15:03;6.95;;;2.70;;
29402;SDS011;16382;59.942;30.472;2023-03-30T07:17:35;3.78;;;2.50;;
29402;SDS011;16382;59.942;30.472;2023-03-30T07:20:04;5.00;;;2.75;;
29402;SDS011;16382;59.942;30.472;2023-03-30T07:22:50;3.15;;;2.00;;
29402;SDS011;16382;59.942;30.472;2023-03-30T07:25:18;2.22;;;2.05;;
29402;SDS011;16382;59.942;30.472;2023-03-30T07:27:46;3.67;;;2.00;;
29402;SDS011;16382;59.942;30.472;2023-03-30T07:30:15;4.93;;;2.10;;
29402;SDS011;16382;59.942;30.472;2023-03-30T07:32:46;3.47;;;1.73;;
29402;SDS011;16382;59.942;30.472;2023-03-30T07:35:15;2.67;;;2.00;;
29402;SDS011;16382;59.942;30.472;2023-03-30T07:37:42;3.88;;;2.55;;
29402;SDS011;16382;59.942;30.472;2023-03-30T07:40:10;5.75;;;2.00;;
29402;SDS011;16382;59.942;30.472;2023-03-30T07:42:40;2.78;;;1.55;;
29402;SDS011;16382;59.942;30.472;2023-03-30T07:45:08;11.05;;;3.83;;
29402;SDS011;16382;59.942;30.472;2023-03-30T07:47:37;1.63;;;1.30;;
29402;SDS011;16382;59.942;30.472;2023-03-30T07:50:08;5.68;;;2.55;;
29402;SDS011;16382;59.942;30.472;2023-03-30T07:52:36;6.32;;;2.88;;
29402;SDS011;16382;59.942;30.472;2023-03-30T07:55:03;5.05;;;2.40;;
29402;SDS011;16382;59.942;30.472;2023-03-30T07:57:52;2.08;;;1.88;;
29402;SDS011;16382;59.942;30.472;2023-03-30T08:00:20;5.60;;;2.20;;
29402;SDS011;16382;59.942;30.472;2023-03-30T08:03:13;1.40;;;1.30;;
29402;SDS011;16382;59.942;30.472;2023-03-30T08:05:44;1.80;;;1.70;;
29402;SDS011;16382;59.942;30.472;2023-03-30T08:08:21;4.10;;;1.80;;
29402;SDS011;16382;59.942;30.472;2023-03-30T08:10:49;2.95;;;1.80;;
29402;SDS011;16382;59.942;30.472;2023-03-30T08:13:16;2.78;;;1.70;;
29402;SDS011;16382;59.942;30.472;2023-03-30T08:15:44;2.50;;;1.55;;
29402;SDS011;16382;59.942;30.472;2023-03-30T08:18:12;3.63;;;2.20;;
29402;SDS011;16382;59.942;30.472;2023-03-30T08:20:40;5.15;;;1.98;;
29402;SDS011;16382;59.942;30.472;2023-03-30T08:23:10;4.10;;;2.38;;
29402;SDS011;16382;59.942;30.472;2023-03-30T08:25:38;4.82;;;2.33;;
29402;SDS011;16382;59.942;30.472;2023-03-30T08:28:05;2.38;;;2.10;;
29402;SDS011;16382;59.942;30.472;2023-03-30T08:30:33;2.35;;;2.05;;
29402;SDS011;16382;59.942;30.472;2023-03-30T08:33:01;4.25;;;2.20;;
29402;SDS011;16382;59.942;30.472;2023-03-30T08:35:29;3.25;;;2.58;;
29402;SDS011;16382;59.942;30.472;2023-03-30T08:37:57;2.15;;;1.95;;
29402;SDS011;16382;59.942;30.472;2023-03-30T08:40:26;3.53;;;2.20;;
29402;SDS011;16382;59.942;30.472;2023-03-30T08:45:50;3.55;;;1.77;;
29402;SDS011;16382;59.942;30.472;2023-03-30T08:48:18;4.07;;;2.00;;
29402;SDS011;16382;59.942;30.472;2023-03-30T08:50:51;4.80;;;2.25;;
29402;SDS011;16382;59.942;30.472;2023-03-30T08:53:24;3.25;;;1.90;;
29402;SDS011;16382;59.942;30.472;2023-03-30T08:55:57;3.83;;;2.40;;
29402;SDS011;16382;59.942;30.472;2023-03-30T08:58:35;3.88;;;1.95;;
29402;SDS011;16382;59.942;30.472;2023-03-30T09:01:14;2.65;;;1.98;;
29402;SDS011;16382;59.942;30.472;2023-03-30T09:03:50;4.57;;;1.98;;
29402;SDS011;16382;59.942;30.472;2023-03-30T09:06:33;2.25;;;1.88;;
29402;SDS011;16382;59.942;30.472;2023-03-30T09:09:12;5.15;;;1.73;;
29402;SDS011;16382;59.942;30.472;2023-03-30T09:11:44;2.88;;;1.77;;
29402;SDS011;16382;59.942;30.472;2023-03-30T09:14:17;2.92;;;1.77;;
29402;SDS011;16382;59.942;30.472;2023-03-30T09:16:57;1.40;;;1.30;;
29402;SDS011;16382;59.942;30.472;2023-03-30T09:19:35;1.55;;;1.10;;
29402;SDS011;16382;59.942;30.472;2023-03-30T09:22:14;2.78;;;1.50;;
29402;SDS011;16382;59.942;30.472;2023-03-30T09:24:46;2.05;;;1.60;;
29402;SDS011;16382;59.942;30.472;2023-03-30T09:27:18;2.00;;;1.58;;
29402;SDS011;16382;59.942;30.472;2023-03-30T09:29:51;2.40;;;1.80;;
29402;SDS011;16382;59.942;30.472;2023-03-30T09:32:23;3.80;;;1.90;;
29402;SDS011;16382;59.942;30.472;2023-03-30T09:34:58;4.85;;;1.90;;
29402;SDS011;16382;59.942;30.472;2023-03-30T09:37:33;1.60;;;1.50;;
29402;SDS011;16382;59.942;30.472;2023-03-30T09:40:05;4.13;;;1.60;;
29402;SDS011;16382;59.942;30.472;2023-03-30T09:42:54;2.17;;;1.40;;
29402;SDS011;16382;59.942;30.472;2023-03-30T09:45:34;5.25;;;1.90;;
29402;SDS011;16382;59.942;30.472;2023-03-30T09:48:02;2.05;;;1.70;;
29402;SDS011;16382;59.942;30.472;2023-03-30T09:50:35;3.72;;;1.63;;
29402;SDS011;16382;59.942;30.472;2023-03-30T09:53:07;3.35;;;1.65;;
29402;SDS011;16382;59.942;30.472;2023-03-30T09:55:53;2.25;;;1.83;;
29402;SDS011;16382;59.942;30.472;2023-03-30T09:58:28;2.63;;;2.00;;
29402;SDS011;16382;59.942;30.472;2023-03-30T10:01:00;2.38;;;1.50;;
29402;SDS011;16382;59.942;30.472;2023-03-30T10:03:36;2.60;;;1.92;;
29402;SDS011;16382;59.942;30.472;2023-03-30T10:06:05;6.35;;;1.92;;
29402;SDS011;16382;59.942;30.472;2023-03-30T10:08:39;5.28;;;2.05;;
29402;SDS011;16382;59.942;30.472;2023-03-30T10:11:08;2.83;;;1.88;;
29402;SDS011;16382;59.942;30.472;2023-03-30T10:13:38;2.88;;;2.08;;
29402;SDS011;16382;59.942;30.472;2023-03-30T10:16:10;2.28;;;2.08;;
29402;SDS011;16382;59.942;30.472;2023-03-30T10:18:50;5.07;;;2.30;;
29402;SDS011;16382;59.942;30.472;2023-03-30T10:21:19;6.78;;;2.45;;
29402;SDS011;16382;59.942;30.472;2023-03-30T10:23:58;2.22;;;1.83;;
29402;SDS011;16382;59.942;30.472;2023-03-30T10:26:29;3.70;;;1.92;;
29402;SDS011;16382;59.942;30.472;2023-03-30T10:29:01;7.15;;;2.78;;
29402;SDS011;16382;59.942;30.472;2023-03-30T10:31:32;3.55;;;2.20;;
29402;SDS011;16382;59.942;30.472;2023-03-30T10:34:03;5.32;;;2.33;;
29402;SDS011;16382;59.942;30.472;2023-03-30T10:36:34;4.82;;;1.88;;
29402;SDS011;16382;59.942;30.472;2023-03-30T10:39:06;4.32;;;1.90;;
29402;SDS011;16382;59.942;30.472;2023-03-30T10:41:40;3.45;;;1.88;;
29402;SDS011;16382;59.942;30.472;2023-03-30T10:44:18;3.55;;;2.22;;
29402;SDS011;16382;59.942;30.472;2023-03-30T10:46:51;1.60;;;1.50;;
29402;SDS011;16382;59.942;30.472;2023-03-30T10:49:35;3.40;;;1.75;;
29402;SDS011;16382;59.942;30.472;2023-03-30T10:52:12;2.20;;;1.77;;
29402;SDS011;16382;59.942;30.472;2023-03-30T10:54:48;1.70;;;1.58;;
29402;SDS011;16382;59.942;30.472;2023-03-30T10:57:23;2.35;;;1.70;;
29402;SDS011;16382;59.942;30.472;2023-03-30T11:00:08;3.13;;;1.80;;
29402;SDS011;16382;59.942;30.472;2023-03-30T11:02:53;2.35;;;1.80;;
29402;SDS011;16382;59.942;30.472;2023-03-30T11:05:30;4.45;;;1.95;;
29402;SDS011;16382;59.942;30.472;2023-03-30T11:08:01;2.85;;;1.83;;
29402;SDS011;16382;59.942;30.472;2023-03-30T11:10:35;3.05;;;1.85;;
29402;SDS011;16382;59.942;30.472;2023-03-30T11:13:05;3.67;;;1.98;;
29402;SDS011;16382;59.942;30.472;2023-03-30T11:15:39;2.53;;;1.90;;
29402;SDS011;16382;59.942;30.472;2023-03-30T11:18:13;3.95;;;1.98;;
29402;SDS011;16382;59.942;30.472;2023-03-30T11:20:47;3.53;;;1.50;;
29402;SDS011;16382;59.942;30.472;2023-03-30T11:23:20;4.40;;;2.28;;
29402;SDS011;16382;59.942;30.472;2023-03-30T11:26:04;3.05;;;1.95;;
29402;SDS011;16382;59.942;30.472;2023-03-30T11:28:56;2.13;;;1.58;;
29402;SDS011;16382;59.942;30.472;2023-03-30T11:31:50;5.00;;;1.48;;
29402;SDS011;16382;59.942;30.472;2023-03-30T11:34:30;2.38;;;1.85;;
29402;SDS011;16382;59.942;30.472;2023-03-30T11:37:18;3.30;;;1.52;;
29402;SDS011;16382;59.942;30.472;2023-03-30T11:39:55;2.47;;;1.38;;
29402;SDS011;16382;59.942;30.472;2023-03-30T11:42:30;3.38;;;1.52;;
29402;SDS011;16382;59.942;30.472;2023-03-30T11:45:14;4.35;;;1.83;;
29402;SDS011;16382;59.942;30.472;2023-03-30T11:48:03;2.40;;;1.20;;
29402;SDS011;16382;59.942;30.472;2023-03-30T11:50:52;5.70;;;1.75;;
29402;SDS011;16382;59.942;30.472;2023-03-30T11:53:38;2.40;;;1.30;;
29402;SDS011;16382;59.942;30.472;2023-03-30T11:56:19;1.98;;;1.42;;
29402;SDS011;16382;59.942;30.472;2023-03-30T11:59:00;6.13;;;1.50;;
29402;SDS011;16382;59.942;30.472;2023-03-30T12:01:37;1.60;;;1.13;;
29402;SDS011;16382;59.942;30.472;2023-03-30T12:04:21;2.65;;;1.08;;
29402;SDS011;16382;59.942;30.472;2023-03-30T12:06:54;2.75;;;1.35;;
29402;SDS011;16382;59.942;30.472;2023-03-30T12:11:56;3.03;;;1.38;;
29402;SDS011;16382;59.942;30.472;2023-03-30T12:14:41;3.45;;;1.30;;
29402;SDS011;16382;59.942;30.472;2023-03-30T12:17:22;2.45;;;1.10;;
29402;SDS011;16382;59.942;30.472;2023-03-30T12:20:16;1.65;;;1.10;;
29402;SDS011;16382;59.942;30.472;2023-03-30T12:23:01;2.83;;;1.40;;
29402;SDS011;16382;59.942;30.472;2023-03-30T12:25:49;6.07;;;1.25;;
29402;SDS011;16382;59.942;30.472;2023-03-30T12:28:39;2.47;;;1.60;;
29402;SDS011;16382;59.942;30.472;2023-03-30T12:31:13;1.85;;;1.10;;
29402;SDS011;16382;59.942;30.472;2023-03-30T12:33:45;2.05;;;1.13;;
29402;SDS011;16382;59.942;30.472;2023-03-30T12:36:24;3.70;;;1.58;;
29402;SDS011;16382;59.942;30.472;2023-03-30T12:39:03;2.70;;;1.20;;
29402;SDS011;16382;59.942;30.472;2023-03-30T12:41:39;2.05;;;1.40;;
29402;SDS011;16382;59.942;30.472;2023-03-30T12:44:30;4.32;;;1.73;;
29402;SDS011;16382;59.942;30.472;2023-03-30T12:47:11;2.47;;;1.45;;
29402;SDS011;16382;59.942;30.472;2023-03-30T12:53:20;2.63;;;1.50;;
29402;SDS011;16382;59.942;30.472;2023-03-30T12:56:21;4.03;;;1.33;;
29402;SDS011;16382;59.942;30.472;2023-03-30T13:02:04;2.55;;;1.63;;
29402;SDS011;16382;59.942;30.472;2023-03-30T13:04:56;2.80;;;1.45;;
29402;SDS011;16382;59.942;30.472;2023-03-30T13:07:24;7.63;;;1.58;;
29402;SDS011;16382;59.942;30.472;2023-03-30T13:09:57;4.13;;;1.60;;
29402;SDS011;16382;59.942;30.472;2023-03-30T13:12:31;4.00;;;1.90;;
29402;SDS011;16382;59.942;30.472;2023-03-30T13:21:17;3.38;;;1.88;;
29402;SDS011;16382;59.942;30.472;2023-03-30T13:24:03;3.35;;;1.95;;
29402;SDS011;16382;59.942;30.472;2023-03-30T13:26:52;6.20;;;1.80;;
29402;SDS011;16382;59.942;30.472;2023-03-30T13:29:20;5.32;;;1.85;;
29402;SDS011;16382;59.942;30.472;2023-03-30T13:32:00;4.40;;;2.00;;
29402;SDS011;16382;59.942;30.472;2023-03-30T13:34:46;6.70;;;2.58;;
29402;SDS011;16382;59.942;30.472;2023-03-30T13:37:31;9.30;;;2.75;;
29402;SDS011;16382;59.942;30.472;2023-03-30T13:40:27;4.60;;;2.78;;
29402;SDS011;16382;59.942;30.472;2023-03-30T13:43:00;5.05;;;2.50;;
29402;SDS011;16382;59.942;30.472;2023-03-30T13:45:36;11.57;;;2.70;;
29402;SDS011;16382;59.942;30.472;2023-03-30T13:48:24;6.50;;;2.65;;
29402;SDS011;16382;59.942;30.472;2023-03-30T13:51:03;2.83;;;2.47;;
29402;SDS011;16382;59.942;30.472;2023-03-30T13:53:34;5.28;;;2.50;;
29402;SDS011;16382;59.942;30.472;2023-03-30T13:56:08;5.05;;;3.30;;
29402;SDS011;16382;59.942;30.472;2023-03-30T13:58:41;4.18;;;2.97;;
29402;SDS011;16382;59.942;30.472;2023-03-30T14:01:17;2.72;;;2.30;;
29402;SDS011;16382;59.942;30.472;2023-03-30T14:03:50;4.22;;;2.30;;
29402;SDS011;16382;59.942;30.472;2023-03-30T14:06:21;6.13;;;2.58;;
29402;SDS011;16382;59.942;30.472;2023-03-30T14:08:57;5.78;;;2.40;;
29402;SDS011;16382;59.942;30.472;2023-03-30T14:11:35;4.03;;;2.60;;
29402;SDS011;16382;59.942;30.472;2023-03-30T14:14:12;6.85;;;2.60;;
29402;SDS011;16382;59.942;30.472;2023-03-30T14:16:43;4.68;;;2.50;;
29402;SDS011;16382;59.942;30.472;2023-03-30T14:19:12;4.57;;;2.38;;
29402;SDS011;16382;59.942;30.472;2023-03-30T14:21:50;3.22;;;2.60;;
29402;SDS011;16382;59.942;30.472;2023-03-30T14:26:59;5.82;;;3.28;;
29402;SDS011;16382;59.942;30.472;2023-03-30T14:29:32;8.93;;;3.20;;
29402;SDS011;16382;59.942;30.472;2023-03-30T14:32:01;8.52;;;3.08;;
29402;SDS011;16382;59.942;30.472;2023-03-30T14:34:29;6.18;;;3.50;;
29402;SDS011;16382;59.942;30.472;2023-03-30T14:36:59;5.80;;;3.42;;
29402;SDS011;16382;59.942;30.472;2023-03-30T14:39:30;4.35;;;3.15;;
29402;SDS011;16382;59.942;30.472;2023-03-30T14:42:13;6.65;;;3.67;;
29402;SDS011;16382;59.942;30.472;2023-03-30T14:44:47;6.97;;;3.05;;
29402;SDS011;16382;59.942;30.472;2023-03-30T14:47:21;6.43;;;3.25;;
29402;SDS011;16382;59.942;30.472;2023-03-30T14:49:51;5.28;;;3.20;;
29402;SDS011;16382;59.942;30.472;2023-03-30T14:52:22;6.45;;;3.65;;
29402;SDS011;16382;59.942;30.472;2023-03-30T14:54:55;6.38;;;4.68;;
29402;SDS011;16382;59.942;30.472;2023-03-30T14:57:23;5.95;;;3.17;;
29402;SDS011;16382;59.942;30.472;2023-03-30T14:59:53;4.85;;;3.50;;
29402;SDS011;16382;59.942;30.472;2023-03-30T15:02:29;5.88;;;3.47;;
29402;SDS011;16382;59.942;30.472;2023-03-30T15:04:59;5.88;;;3.75;;
29402;SDS011;16382;59.942;30.472;2023-03-30T15:07:30;8.85;;;3.63;;
29402;SDS011;16382;59.942;30.472;2023-03-30T15:10:02;6.45;;;3.55;;
29402;SDS011;16382;59.942;30.472;2023-03-30T15:12:37;7.50;;;3.88;;
29402;SDS011;16382;59.942;30.472;2023-03-30T15:15:08;11.23;;;4.90;;
29402;SDS011;16382;59.942;30.472;2023-03-30T15:17:42;10.10;;;3.75;;
29402;SDS011;16382;59.942;30.472;2023-03-30T15:20:14;12.60;;;4.05;;
29402;SDS011;16382;59.942;30.472;2023-03-30T15:22:42;6.43;;;4.15;;
29402;SDS011;16382;59.942;30.472;2023-03-30T15:25:13;6.90;;;3.88;;
29402;SDS011;16382;59.942;30.472;2023-03-30T15:27:47;11.65;;;4.10;;
29402;SDS011;16382;59.942;30.472;2023-03-30T15:30:25;7.60;;;4.45;;
29402;SDS011;16382;59.942;30.472;2023-03-30T15:32:56;8.13;;;3.47;;
29402;SDS011;16382;59.942;30.472;2023-03-30T15:35:25;10.77;;;4.03;;
29402;SDS011;16382;59.942;30.472;2023-03-30T15:37:56;8.27;;;4.43;;
29402;SDS011;16382;59.942;30.472;2023-03-30T15:40:28;8.55;;;4.43;;
29402;SDS011;16382;59.942;30.472;2023-03-30T15:43:13;15.18;;;3.75;;
29402;SDS011;16382;59.942;30.472;2023-03-30T15:45:56;7.75;;;3.72;;
29402;SDS011;16382;59.942;30.472;2023-03-30T15:48:29;5.95;;;3.85;;
29402;SDS011;16382;59.942;30.472;2023-03-30T15:51:04;6.57;;;4.07;;
29402;SDS011;16382;59.942;30.472;2023-03-30T15:53:49;8.15;;;4.65;;
29402;SDS011;16382;59.942;30.472;2023-03-30T15:56:19;7.07;;;3.88;;
29402;SDS011;16382;59.942;30.472;2023-03-30T15:58:51;5.03;;;3.35;;